createdAt,value
2024-05-09T00:00:05.027Z,1011.4
2024-05-09T00:02:04.542Z,1011.4
2024-05-09T00:05:05.113Z,1011.4
2024-05-09T00:08:04.520Z,1011.4
2024-05-09T00:10:05.513Z,1011.5
2024-05-09T00:12:05.504Z,1011.4
2024-05-09T00:15:04.526Z,1011.4
2024-05-09T00:18:05.576Z,1011.3
2024-05-09T00:21:04.492Z,1011.3
2024-05-09T00:24:04.780Z,1011.4
2024-05-09T00:27:04.452Z,1011.4
2024-05-09T00:29:04.684Z,1011.4
2024-05-09T00:31:04.696Z,1011.4
2024-05-09T00:34:04.525Z,1011.4
2024-05-09T00:36:04.442Z,1011.3
2024-05-09T00:38:05.237Z,1011.4
2024-05-09T00:41:04.444Z,1011.4
2024-05-09T00:43:04.741Z,1011.3
2024-05-09T00:46:04.732Z,1011.3
2024-05-09T00:48:05.217Z,1011.3
2024-05-09T00:51:06.802Z,1011.3
2024-05-09T00:54:05.119Z,1011.3
2024-05-09T00:57:06.715Z,1011.3
2024-05-09T01:00:07.747Z,1011.2
2024-05-09T01:02:07.266Z,1011.2
2024-05-09T01:04:05.363Z,1011.2
2024-05-09T01:07:04.460Z,1011.2
2024-05-09T01:10:07.082Z,1011.2
2024-05-09T01:12:04.452Z,1011.2
2024-05-09T01:14:04.546Z,1011.2
2024-05-09T01:17:04.575Z,1011.2
2024-05-09T01:19:04.900Z,1011.2
2024-05-09T01:21:04.766Z,1011.2
2024-05-09T01:23:05.206Z,1011.2
2024-05-09T01:26:04.449Z,1011.2
2024-05-09T01:28:04.735Z,1011.3
2024-05-09T01:30:07.025Z,1011.2
2024-05-09T01:33:05.927Z,1011.2
2024-05-09T01:36:04.449Z,1011.2
2024-05-09T01:38:04.559Z,1011.2
2024-05-09T01:40:07.418Z,1011.2
2024-05-09T01:43:04.927Z,1011.2
2024-05-09T01:46:04.421Z,1011.2
2024-05-09T01:49:04.560Z,1011.2
2024-05-09T01:51:04.928Z,1011.2
2024-05-09T01:53:10.368Z,1011.2
2024-05-09T01:56:04.469Z,1011.2
2024-05-09T01:58:04.448Z,1011.2
2024-05-09T02:00:04.856Z,1011.2
2024-05-09T02:03:04.917Z,1011.2
2024-05-09T02:06:05.123Z,1011.2
2024-05-09T02:09:04.781Z,1011.2
2024-05-09T02:12:04.725Z,1011.2
2024-05-09T02:15:04.466Z,1011.2
2024-05-09T02:18:04.632Z,1011.2
2024-05-09T02:20:05.948Z,1011.1
2024-05-09T02:23:05.052Z,1011.1
2024-05-09T02:25:04.704Z,1011.1
2024-05-09T02:28:04.503Z,1011.1
2024-05-09T02:31:04.654Z,1011.2
2024-05-09T02:34:05.412Z,1011.2
2024-05-09T02:37:04.509Z,1011.2
2024-05-09T02:39:04.710Z,1011.2
2024-05-09T02:42:04.450Z,1011.2
2024-05-09T02:44:04.487Z,1011.2
2024-05-09T02:47:04.477Z,1011.2
2024-05-09T02:49:04.556Z,1011.1
2024-05-09T02:52:04.441Z,1011.2
2024-05-09T02:54:04.540Z,1011.2
2024-05-09T02:57:05.314Z,1011.2
2024-05-09T03:00:06.055Z,1011.2
2024-05-09T03:02:05.424Z,1011.2
2024-05-09T03:05:04.511Z,1011.2
2024-05-09T03:08:04.685Z,1011.2
2024-05-09T03:11:04.951Z,1011.2
2024-05-09T03:14:04.451Z,1011.2
2024-05-09T03:17:04.484Z,1011.2
2024-05-09T03:19:05.488Z,1011.2
2024-05-09T03:22:04.934Z,1011.2
2024-05-09T03:24:05.260Z,1011.2
2024-05-09T03:27:04.441Z,1011.2
2024-05-09T03:29:04.458Z,1011.2
2024-05-09T03:32:04.551Z,1011.2
2024-05-09T03:34:04.978Z,1011.2
2024-05-09T03:37:04.446Z,1011.2
2024-05-09T03:39:05.071Z,1011.2
2024-05-09T03:42:04.436Z,1011.2
2024-05-09T03:44:04.505Z,1011.3
2024-05-09T03:46:05.233Z,1011.2
2024-05-09T03:49:04.645Z,1011.2
2024-05-09T03:51:05.441Z,1011.2
2024-05-09T03:55:04.513Z,1011.2
2024-05-09T03:58:04.461Z,1011.2
2024-05-09T04:00:05.700Z,1011.2
2024-05-09T04:03:04.890Z,1011.2
2024-05-09T04:05:04.478Z,1011.2
2024-05-09T04:08:04.492Z,1011.2
2024-05-09T04:10:05.395Z,1011.2
2024-05-09T04:12:04.686Z,1011.3
2024-05-09T04:15:04.475Z,1011.3
2024-05-09T04:17:05.250Z,1011.3
2024-05-09T04:20:06.479Z,1011.3
2024-05-09T04:23:04.487Z,1011.3
2024-05-09T04:25:04.633Z,1011.2
2024-05-09T04:28:04.967Z,1011.3
2024-05-09T04:31:04.461Z,1011.2
2024-05-09T04:34:05.387Z,1011.3
2024-05-09T04:37:04.488Z,1011.3
2024-05-09T04:39:04.494Z,1011.3
2024-05-09T04:42:05.205Z,1011.3
2024-05-09T04:44:05.303Z,1011.3
2024-05-09T04:47:04.556Z,1011.4
2024-05-09T04:49:04.482Z,1011.4
2024-05-09T04:52:04.461Z,1011.4
2024-05-09T04:54:05.524Z,1011.4
2024-05-09T04:57:04.501Z,1011.4
2024-05-09T04:59:04.913Z,1011.4
2024-05-09T05:02:04.667Z,1011.4
2024-05-09T05:04:05.705Z,1011.3
2024-05-09T05:07:05.153Z,1011.4
2024-05-09T05:10:04.587Z,1011.4
2024-05-09T05:12:04.699Z,1011.4
2024-05-09T05:14:05.282Z,1011.4
2024-05-09T05:16:05.253Z,1011.4
2024-05-09T05:19:07.341Z,1011.4
2024-05-09T05:22:04.438Z,1011.5
2024-05-09T05:24:04.480Z,1011.5
2024-05-09T05:27:05.275Z,1011.6
2024-05-09T05:30:07.408Z,1011.5
2024-05-09T05:32:05.286Z,1011.5
2024-05-09T05:35:04.629Z,1011.5
2024-05-09T05:37:05.239Z,1011.6
2024-05-09T05:40:05.747Z,1011.6
2024-05-09T05:43:04.676Z,1011.6
2024-05-09T05:46:04.692Z,1011.6
2024-05-09T05:48:04.919Z,1011.6
2024-05-09T05:50:07.054Z,1011.6
2024-05-09T05:52:05.035Z,1011.7
2024-05-09T05:55:05.001Z,1011.7
2024-05-09T05:58:04.794Z,1011.7
2024-05-09T06:01:04.480Z,1011.6
2024-05-09T06:04:04.765Z,1011.7
2024-05-09T06:07:04.477Z,1011.7
2024-05-09T06:09:05.020Z,1011.8
2024-05-09T06:12:04.600Z,1011.8
2024-05-09T06:14:05.047Z,1011.8
2024-05-09T06:17:04.510Z,1011.8
2024-05-09T06:19:04.895Z,1011.8
2024-05-09T06:22:04.693Z,1011.8
2024-05-09T06:25:09.457Z,1011.7
2024-05-09T06:27:04.498Z,1011.7
2024-05-09T06:30:05.139Z,1011.7
2024-05-09T06:32:04.674Z,1011.7
2024-05-09T06:35:04.481Z,1011.7
2024-05-09T06:37:04.508Z,1011.7
2024-05-09T06:39:04.490Z,1011.7
2024-05-09T06:41:04.904Z,1011.7
2024-05-09T06:43:05.171Z,1011.8
2024-05-09T06:46:05.159Z,1011.8
2024-05-09T06:49:05.622Z,1011.7
2024-05-09T06:52:04.462Z,1011.7
2024-05-09T06:54:04.465Z,1011.8
2024-05-09T06:57:04.500Z,1011.7
2024-05-09T07:00:05.017Z,1011.8
2024-05-09T07:02:05.495Z,1011.8
2024-05-09T07:05:04.661Z,1011.8
2024-05-09T07:07:04.964Z,1011.8
2024-05-09T07:09:05.068Z,1011.8
2024-05-09T07:11:05.345Z,1011.8
2024-05-09T07:14:04.656Z,1011.8
2024-05-09T07:16:04.642Z,1011.7
2024-05-09T07:19:04.687Z,1011.6
2024-05-09T07:21:05.191Z,1011.7
2024-05-09T07:24:04.457Z,1011.6
2024-05-09T07:26:05.034Z,1011.6
2024-05-09T07:29:05.206Z,1011.6
2024-05-09T07:32:04.666Z,1011.6
2024-05-09T07:35:05.097Z,1011.6
2024-05-09T07:38:04.504Z,1011.6
2024-05-09T07:40:05.953Z,1011.6
2024-05-09T07:43:05.216Z,1011.6
2024-05-09T07:45:14.871Z,1011.6
2024-05-09T07:51:31.229Z,1011.6
2024-05-09T07:53:29.633Z,1011.6
2024-05-09T07:56:04.645Z,1011.6
2024-05-09T07:59:03.584Z,1011.6
2024-05-09T08:01:04.609Z,1011.6
2024-05-09T08:03:04.885Z,1011.6
2024-05-09T08:06:04.498Z,1011.6
2024-05-09T08:08:05.301Z,1011.5
2024-05-09T08:11:04.561Z,1011.6
2024-05-09T08:13:05.523Z,1011.5
2024-05-09T08:16:05.160Z,1011.6
2024-05-09T08:18:05.010Z,1011.6
2024-05-09T08:21:04.594Z,1011.6
2024-05-09T08:24:05.118Z,1011.6
2024-05-09T08:26:05.327Z,1011.6
2024-05-09T08:29:04.480Z,1011.5
2024-05-09T08:31:06.232Z,1011.5
2024-05-09T08:34:04.561Z,1011.6
2024-05-09T08:36:04.548Z,1011.5
2024-05-09T08:39:04.482Z,1011.5
2024-05-09T08:42:05.102Z,1011.4
2024-05-09T08:45:04.513Z,1011.4
2024-05-09T08:47:05.589Z,1011.4
2024-05-09T08:50:05.250Z,1011.4
2024-05-09T08:53:04.518Z,1011.4
2024-05-09T08:55:04.526Z,1011.4
2024-05-09T08:58:04.542Z,1011.4
2024-05-09T09:00:07.848Z,1011.4
2024-05-09T09:03:04.622Z,1011.4
2024-05-09T09:05:05.305Z,1011.4
2024-05-09T09:08:04.552Z,1011.3
2024-05-09T09:11:04.528Z,1011.3
2024-05-09T09:14:04.485Z,1011.3
2024-05-09T09:16:04.944Z,1011.3
2024-05-09T09:19:04.655Z,1011.3
2024-05-09T09:21:05.337Z,1011.3
2024-05-09T09:24:04.785Z,1011.3
2024-05-09T09:26:04.920Z,1011.3
2024-05-09T09:29:04.832Z,1011.3
2024-05-09T09:32:05.170Z,1011.3
2024-05-09T09:35:04.569Z,1011.3
2024-05-09T09:37:05.655Z,1011.3
2024-05-09T09:40:04.730Z,1011.3
2024-05-09T09:42:04.490Z,1011.3
2024-05-09T09:45:05.667Z,1011.3
2024-05-09T09:47:05.226Z,1011.3
2024-05-09T09:50:07.152Z,1011.2
2024-05-09T09:53:04.522Z,1011.3
2024-05-09T09:55:04.934Z,1011.3
2024-05-09T09:58:06.429Z,1011.2
2024-05-09T10:01:04.579Z,1011.2
2024-05-09T10:03:04.591Z,1011.2
2024-05-09T10:05:04.968Z,1011.2
2024-05-09T10:07:05.003Z,1011.2
2024-05-09T10:10:06.785Z,1011.1
2024-05-09T10:13:04.695Z,1011.1
2024-05-09T10:15:04.551Z,1011.1
2024-05-09T10:17:05.077Z,1011
2024-05-09T10:20:09.623Z,1011
2024-05-09T10:22:05.457Z,1011
2024-05-09T10:25:05.159Z,1011
2024-05-09T10:27:05.303Z,1011
2024-05-09T10:30:08.907Z,1010.9
2024-05-09T10:33:04.551Z,1010.9
2024-05-09T10:36:04.518Z,1010.9
2024-05-09T10:38:05.204Z,1010.8
2024-05-09T10:41:04.542Z,1010.9
2024-05-09T10:44:04.536Z,1010.9
2024-05-09T10:46:04.737Z,1010.9
2024-05-09T10:49:06.353Z,1010.8
2024-05-09T10:52:04.592Z,1010.8
2024-05-09T10:55:05.555Z,1010.7
2024-05-09T10:57:05.352Z,1010.7
2024-05-09T11:00:06.389Z,1010.6
2024-05-09T11:03:05.346Z,1010.7
2024-05-09T11:06:04.818Z,1010.7
2024-05-09T11:08:04.746Z,1010.6
2024-05-09T11:10:07.485Z,1010.6
2024-05-09T11:13:04.773Z,1010.6
2024-05-09T11:16:05.330Z,1010.6
2024-05-09T11:18:05.308Z,1010.5
2024-05-09T11:20:10.636Z,1010.5
2024-05-09T11:23:04.516Z,1010.4
2024-05-09T11:25:05.128Z,1010.4
2024-05-09T11:28:04.550Z,1010.3
2024-05-09T11:30:05.803Z,1010.3
2024-05-09T11:33:04.564Z,1010.3
2024-05-09T11:35:05.012Z,1010.3
2024-05-09T11:37:05.133Z,1010.3
2024-05-09T11:40:06.925Z,1010.3
2024-05-09T11:42:05.450Z,1010.3
2024-05-09T11:45:04.554Z,1010.2
2024-05-09T11:47:04.596Z,1010.3
2024-05-09T11:49:05.420Z,1010.3
2024-05-09T11:52:04.910Z,1010.2
2024-05-09T11:55:05.039Z,1010.2
2024-05-09T11:58:04.563Z,1010.2
2024-05-09T12:01:04.678Z,1010.1
2024-05-09T12:04:05.015Z,1010.1
2024-05-09T12:06:05.017Z,1010
2024-05-09T12:09:04.584Z,1009.9
2024-05-09T12:12:04.550Z,1009.9
2024-05-09T12:15:04.542Z,1009.9
2024-05-09T12:17:04.607Z,1009.9
2024-05-09T12:19:05.438Z,1009.9
2024-05-09T12:22:04.573Z,1009.9
2024-05-09T12:24:04.533Z,1009.9
2024-05-09T12:26:04.560Z,1009.8
2024-05-09T12:29:04.535Z,1009.8
2024-05-09T12:31:05.389Z,1009.7
2024-05-09T12:34:04.620Z,1009.7
2024-05-09T12:36:04.593Z,1009.7
2024-05-09T12:39:04.538Z,1009.7
2024-05-09T12:42:04.618Z,1009.7
2024-05-09T12:45:04.814Z,1009.6
2024-05-09T12:48:05.302Z,1009.6
2024-05-09T12:50:08.129Z,1009.6
2024-05-09T12:53:04.925Z,1009.5
2024-05-09T12:55:05.098Z,1009.3
2024-05-09T12:58:04.638Z,1009.4
2024-05-09T13:00:05.679Z,1009.5
2024-05-09T13:02:05.820Z,1009.4
2024-05-09T13:05:05.276Z,1009.4
2024-05-09T13:08:05.025Z,1009.4
2024-05-09T13:10:05.685Z,1009.4
2024-05-09T13:13:04.675Z,1009.4
2024-05-09T13:15:05.339Z,1009.4
2024-05-09T13:18:05.307Z,1009.3
2024-05-09T13:21:04.583Z,1009.2
2024-05-09T13:23:05.541Z,1009.2
2024-05-09T13:26:05.476Z,1009.2
2024-05-09T13:29:04.587Z,1009.2
2024-05-09T13:31:04.767Z,1009.2
2024-05-09T13:34:05.301Z,1009.2
2024-05-09T13:37:04.607Z,1009.1
2024-05-09T13:39:05.005Z,1009.1
2024-05-09T13:42:05.434Z,1009.1
2024-05-09T13:45:04.610Z,1009
2024-05-09T13:48:05.366Z,1009
2024-05-09T13:51:04.541Z,1009
2024-05-09T13:53:04.606Z,1009
2024-05-09T13:55:05.152Z,1009
2024-05-09T13:57:05.262Z,1009
2024-05-09T14:00:06.775Z,1008.9
2024-05-09T14:03:04.650Z,1008.8
2024-05-09T14:05:05.136Z,1008.9
2024-05-09T14:08:04.591Z,1008.8
2024-05-09T14:10:06.503Z,1008.8
2024-05-09T14:13:04.769Z,1008.7
2024-05-09T14:16:04.656Z,1008.7
2024-05-09T14:19:04.649Z,1008.7
2024-05-09T14:22:04.630Z,1008.6
2024-05-09T14:24:04.825Z,1008.6
2024-05-09T14:27:05.031Z,1008.6
2024-05-09T14:29:05.369Z,1008.5
2024-05-09T14:32:04.583Z,1008.5
2024-05-09T14:34:05.268Z,1008.5
2024-05-09T14:37:05.501Z,1008.5
2024-05-09T14:40:06.870Z,1008.5
2024-05-09T14:43:04.659Z,1008.4
2024-05-09T14:46:04.661Z,1008.3
2024-05-09T14:49:04.636Z,1008.3
2024-05-09T14:51:04.591Z,1008.3
2024-05-09T14:53:05.065Z,1008.2
2024-05-09T14:56:04.639Z,1008.3
2024-05-09T14:59:05.250Z,1008.2
2024-05-09T15:02:04.676Z,1008.2
2024-05-09T15:04:04.685Z,1008.1
2024-05-09T15:06:04.607Z,1008.1
2024-05-09T15:08:04.597Z,1008.1
2024-05-09T15:11:04.801Z,1008.1
2024-05-09T15:14:05.455Z,1008.1
2024-05-09T15:17:04.602Z,1008.1
2024-05-09T15:23:05.668Z,1007.9
2024-05-09T15:26:04.600Z,1007.9
2024-05-09T15:29:04.661Z,1007.9
2024-05-09T15:31:05.523Z,1007.9
2024-05-09T15:34:05.430Z,1007.8
2024-05-09T15:38:04.843Z,1007.8
2024-05-09T15:40:05.569Z,1007.8
2024-05-09T15:42:04.771Z,1007.8
2024-05-09T15:44:05.553Z,1007.8
2024-05-09T15:47:05.244Z,1007.8
2024-05-09T15:50:07.869Z,1007.8
2024-05-09T15:53:05.581Z,1007.8
2024-05-09T15:55:05.234Z,1007.7
2024-05-09T15:58:05.005Z,1007.7
2024-05-09T16:01:04.901Z,1007.7
2024-05-09T16:03:05.363Z,1007.8
2024-05-09T16:05:05.506Z,1007.7
2024-05-09T16:08:04.660Z,1007.7
2024-05-09T16:12:05.390Z,1007.6
2024-05-09T16:15:04.791Z,1007.7
2024-05-09T16:18:04.964Z,1007.7
2024-05-09T16:21:05.152Z,1007.7
2024-05-09T16:23:05.137Z,1007.7
2024-05-09T16:26:04.643Z,1007.7
2024-05-09T16:28:07.235Z,1007.7
2024-05-09T16:31:04.681Z,1007.6
2024-05-09T16:33:05.175Z,1007.7
2024-05-09T16:36:04.957Z,1007.7
2024-05-09T16:39:04.617Z,1007.7
2024-05-09T16:41:04.656Z,1007.6
2024-05-09T16:44:05.178Z,1007.6
2024-05-09T16:47:05.072Z,1007.6
2024-05-09T16:49:05.378Z,1007.6
2024-05-09T16:52:05.087Z,1007.6
2024-05-09T16:55:05.065Z,1007.6
2024-05-09T16:57:05.196Z,1007.6
2024-05-09T17:00:07.323Z,1007.6
2024-05-09T17:02:04.863Z,1007.6
2024-05-09T17:05:04.826Z,1007.6
2024-05-09T17:07:04.705Z,1007.6
2024-05-09T17:09:05.380Z,1007.6
2024-05-09T17:12:05.245Z,1007.5
2024-05-09T17:15:04.653Z,1007.6
2024-05-09T17:18:04.754Z,1007.5
2024-05-09T17:20:06.257Z,1007.5
2024-05-09T17:23:05.759Z,1007.5
2024-05-09T17:26:05.169Z,1007.5
2024-05-09T17:28:05.850Z,1007.5
2024-05-09T17:31:04.858Z,1007.5
2024-05-09T17:33:05.460Z,1007.4
2024-05-09T17:36:05.408Z,1007.5
2024-05-09T17:39:04.794Z,1007.5
2024-05-09T17:41:05.357Z,1007.5
2024-05-09T17:44:04.836Z,1007.5
2024-05-09T17:47:05.259Z,1007.5
2024-05-09T17:50:04.408Z,1007.5
2024-05-09T17:52:04.736Z,1007.5
2024-05-09T17:54:05.247Z,1007.5
2024-05-09T17:56:05.538Z,1007.5
2024-05-09T17:59:05.952Z,1007.6
2024-05-09T18:01:05.594Z,1007.5
2024-05-09T18:04:04.813Z,1007.5
2024-05-09T18:06:05.520Z,1007.5
2024-05-09T18:09:04.872Z,1007.5
2024-05-09T18:11:05.038Z,1007.5
2024-05-09T18:14:04.653Z,1007.5
2024-05-09T18:17:04.641Z,1007.5
2024-05-09T18:19:04.772Z,1007.5
2024-05-09T18:21:05.125Z,1007.6
2024-05-09T18:24:04.836Z,1007.6
2024-05-09T18:27:04.687Z,1007.6
2024-05-09T18:29:04.676Z,1007.6
2024-05-09T18:32:04.820Z,1007.6
2024-05-09T18:35:04.993Z,1007.6
2024-05-09T18:38:04.709Z,1007.6
2024-05-09T18:41:05.126Z,1007.7
2024-05-09T18:44:05.180Z,1007.7
2024-05-09T18:47:04.618Z,1007.7
2024-05-09T18:49:04.824Z,1007.7
2024-05-09T18:52:04.981Z,1007.7
2024-05-09T18:54:05.043Z,1007.8
2024-05-09T18:57:04.677Z,1007.8
2024-05-09T19:00:05.730Z,1007.8
2024-05-09T19:03:05.378Z,1007.8
2024-05-09T19:05:05.053Z,1007.8
2024-05-09T19:08:05.319Z,1007.8
2024-05-09T19:11:04.800Z,1007.9
2024-05-09T19:13:07.126Z,1008
2024-05-09T19:15:05.387Z,1008
2024-05-09T19:18:05.573Z,1008
2024-05-09T19:21:04.684Z,1008
2024-05-09T19:23:05.021Z,1008
2024-05-09T19:26:04.698Z,1008
2024-05-09T19:29:04.666Z,1008.1
2024-05-09T19:31:05.456Z,1008
2024-05-09T19:34:04.747Z,1008
2024-05-09T19:36:05.130Z,1008.1
2024-05-09T19:38:05.390Z,1008.1
2024-05-09T19:41:05.286Z,1008.1
2024-05-09T19:44:04.672Z,1008.1
2024-05-09T19:46:05.062Z,1008.1
2024-05-09T19:48:05.602Z,1008.2
2024-05-09T19:51:04.709Z,1008.1
2024-05-09T19:53:04.686Z,1008.1
2024-05-09T19:55:05.474Z,1008.1
2024-05-09T19:58:05.262Z,1008.2
2024-05-09T20:01:04.771Z,1008.2
2024-05-09T20:03:05.739Z,1008.2
2024-05-09T20:06:04.713Z,1008.2
2024-05-09T20:08:05.580Z,1008.2
2024-05-09T20:11:04.691Z,1008.2
2024-05-09T20:14:04.743Z,1008.2
2024-05-09T20:17:04.725Z,1008.2
2024-05-09T20:19:04.828Z,1008.3
2024-05-09T20:22:05.030Z,1008.3
2024-05-09T20:25:04.787Z,1008.3
2024-05-09T20:27:05.362Z,1008.3
2024-05-09T20:30:07.952Z,1008.2
2024-05-09T20:32:04.742Z,1008.3
2024-05-09T20:34:04.740Z,1008.3
2024-05-09T20:36:05.938Z,1008.2
2024-05-09T20:39:04.719Z,1008.2
2024-05-09T20:41:04.742Z,1008.2
2024-05-09T20:43:05.562Z,1008.2
2024-05-09T20:45:05.271Z,1008.2
2024-05-09T20:48:05.106Z,1008.2
2024-05-09T20:50:07.619Z,1008.2
2024-05-09T20:53:04.695Z,1008.2
2024-05-09T20:55:04.860Z,1008.2
2024-05-09T20:58:04.960Z,1008.2
2024-05-09T21:01:04.815Z,1008.3
2024-05-09T21:03:05.340Z,1008.3
2024-05-09T21:06:04.714Z,1008.3
2024-05-09T21:08:05.364Z,1008.3
2024-05-09T21:11:04.805Z,1008.2
2024-05-09T21:13:05.450Z,1008.2
2024-05-09T21:16:04.868Z,1008.2
2024-05-09T21:19:04.781Z,1008.2
2024-05-09T21:21:05.036Z,1008.3
2024-05-09T21:24:04.882Z,1008.3
2024-05-09T21:26:05.167Z,1008.3
2024-05-09T21:28:05.361Z,1008.2
2024-05-09T21:30:07.652Z,1008.2
2024-05-09T21:33:05.711Z,1008.2
2024-05-09T21:36:04.935Z,1008.2
2024-05-09T21:39:05.237Z,1008.3
2024-05-09T21:42:05.035Z,1008.2
2024-05-09T21:45:04.747Z,1008.1
2024-05-09T21:47:05.650Z,1008.1
2024-05-09T21:50:06.119Z,1008.1
2024-05-09T21:53:05.267Z,1008.1
2024-05-09T21:56:04.703Z,1008
2024-05-09T21:58:05.257Z,1008
2024-05-09T22:01:04.804Z,1008
2024-05-09T22:03:05.323Z,1008.1
2024-05-09T22:05:05.759Z,1008
2024-05-09T22:08:05.431Z,1008
2024-05-09T22:11:04.836Z,1008
2024-05-09T22:14:04.695Z,1008
2024-05-09T22:16:04.807Z,1008
2024-05-09T22:18:05.348Z,1008
2024-05-09T22:21:04.705Z,1008.1
2024-05-09T22:24:05.561Z,1008.1
2024-05-09T22:27:04.727Z,1008.1
2024-05-09T22:29:05.437Z,1008.1
2024-05-09T22:32:04.734Z,1008.1
2024-05-09T22:35:04.912Z,1008
2024-05-09T22:38:04.756Z,1008
2024-05-09T22:41:04.829Z,1008
2024-05-09T22:44:05.483Z,1008
2024-05-09T22:47:04.702Z,1008
2024-05-09T22:49:04.868Z,1008.1
2024-05-09T22:51:04.734Z,1008
2024-05-09T22:53:04.723Z,1008
2024-05-09T22:55:04.806Z,1008
2024-05-09T22:57:05.621Z,1008
2024-05-09T23:00:05.154Z,1008
2024-05-09T23:03:04.787Z,1008
2024-05-09T23:06:04.693Z,1008
2024-05-09T23:08:04.729Z,1008
2024-05-09T23:10:06.663Z,1007.9
2024-05-09T23:13:04.786Z,1008
2024-05-09T23:15:05.474Z,1007.9
2024-05-09T23:17:05.664Z,1007.9
2024-05-09T23:20:05.352Z,1007.9
2024-05-09T23:22:04.759Z,1007.8
2024-05-09T23:24:05.051Z,1007.9
2024-05-09T23:27:04.742Z,1007.8
2024-05-09T23:30:06.116Z,1007.9
2024-05-09T23:33:04.804Z,1007.9
2024-05-09T23:35:05.289Z,1007.9
2024-05-09T23:37:05.472Z,1007.9
2024-05-09T23:40:06.974Z,1007.9
2024-05-09T23:43:05.634Z,1007.8
2024-05-09T23:45:05.619Z,1007.9
2024-05-09T23:48:05.286Z,1007.8
2024-05-09T23:51:05.514Z,1007.9
2024-05-09T23:54:04.723Z,1007.8
2024-05-09T23:56:05.054Z,1007.8
2024-05-09T23:58:05.411Z,1007.7
